Notice: Undefined index: language in D:\xampp\htdocs\vam\index.php on line 25
Open Air Virtual

 METAR AND TAF INFORMATION
METAR FOR EGPE
ADDS - METARS form results

(1254 UTC 20 August 2019)
Data provider http://aviationweather.gov/metar/data/
 
METAR text: EGPE 201250Z 27006KT 9999 FEW030 SCT042 17/08 Q1017
Conditions at: EGPE (INVERNESS/DALCRO, GB) observed 1250 UTC 20 August 2019
Temperature: 17.0°C (63°F)
Dewpoint: 8.0°C (46°F) [RH = 55%]
Pressure (altimeter): 30.03 inches Hg (1017.0 mb)
Winds: from the W (270 degrees) at 7 MPH (6 knots; 3.1 m/s)
Visibility: 6 or more miles (10+ km)
Ceiling: at least 12,000 feet AGL
Clouds: few clouds at 3000 feet AGL
scattered clouds at 4200 feet AGL
Weather: no significant weather observed at this time

METAR text: EGPE 201220Z 25007KT 9999 FEW030 SCT042 16/09 Q1017
Conditions at: EGPE (INVERNESS/DALCRO, GB) observed 1220 UTC 20 August 2019
Temperature: 16.0°C (61°F)
Dewpoint: 9.0°C (48°F) [RH = 63%]
Pressure (altimeter): 30.03 inches Hg (1017.0 mb)
Winds: from the WSW (250 degrees) at 8 MPH (7 knots; 3.6 m/s)
Visibility: 6 or more miles (10+ km)
Ceiling: at least 12,000 feet AGL
Clouds: few clouds at 3000 feet AGL
scattered clouds at 4200 feet AGL
Weather: no significant weather observed at this time

Forecast for: EGPE (INVERNESS/DALCRO, GB)
Text: TAF EGPE 201058Z 2012/2021 25005KT 9999 SCT035
Forecast period: 1200 to 2100 UTC 20 August 2019
Forecast type: FROM: standard forecast or significant change
Winds: from the WSW (250 degrees) at 6 MPH (5 knots; 2.6 m/s)
Visibility: 6 or more miles 10+ km)
Ceiling: at least 12,000 feet AGL
Clouds: scattered clouds at 3500 feet AGL
Weather: no significant weather forecast for this period
Text: PROB30
Forecast period: 1200 to 2000 UTC 20 August 2019
Forecast type: TEMPORARY: The following changes expected for less than half the time period
Visibility: 4 miles (7 km)
Ceiling: unknown
Clouds: missing
Weather: SHRA  (rain showers)

 AIRPORT MAP

 RUNWAY INFORMATION
Runway 05 Runway length 6191 ft Runway width 151 ft
Runway elevation 30 ft Runway displaced threshold 217 ft Runway heading 49
Runway 23 Runway length 6191 ft Runway width 151 ft
Runway elevation 21 ft Runway displaced threshold 0 ft Runway heading 229
Runway 12 Runway length 2297 ft Runway width 59 ft
Runway elevation 31 ft Runway displaced threshold 0 ft Runway heading 110
Runway 30 Runway length 2297 ft Runway width 59 ft
Runway elevation 25 ft Runway displaced threshold 0 ft Runway heading 290

 AIRPORT FREQUENCIES
Type APP Name APP Frequency 122.6 MHZ
Type ATIS Name ATIS Frequency 109.2 MHZ
Type RDR Name RDR Frequency 119.35 MHZ
Type TWR Name TWR Frequency 122.6 MHZ

 AIRPORT NEAR NAVIGATION AIDS
Type VOR-DME Name Inverness Frequency 109200 KHZ
Type NDB Name Inverness Frequency 328 KHZ



Powered by Virtual Airlines Manager [v2.6.2]